sensor_id;sensor_type;location;lat;lon;timestamp;P1;durP1;ratioP1;P2;durP2;ratioP2
46429;SDS011;32131;53.454;-6.180;2023-07-31T00:00:12;2.95;;;1.33;;
46429;SDS011;32131;53.454;-6.180;2023-07-31T00:02:42;2.97;;;1.27;;
46429;SDS011;32131;53.454;-6.180;2023-07-31T00:05:10;3.17;;;1.33;;
46429;SDS011;32131;53.454;-6.180;2023-07-31T00:07:38;10.07;;;1.20;;
46429;SDS011;32131;53.454;-6.180;2023-07-31T00:10:07;3.78;;;1.35;;
46429;SDS011;32131;53.454;-6.180;2023-07-31T00:12:35;2.58;;;1.30;;
46429;SDS011;32131;53.454;-6.180;2023-07-31T00:15:06;4.70;;;1.20;;
46429;SDS011;32131;53.454;-6.180;2023-07-31T00:17:34;8.88;;;1.42;;
46429;SDS011;32131;53.454;-6.180;2023-07-31T00:20:04;1.27;;;0.90;;
46429;SDS011;32131;53.454;-6.180;2023-07-31T00:22:33;4.18;;;1.13;;
46429;SDS011;32131;53.454;-6.180;2023-07-31T00:25:03;2.45;;;1.00;;
46429;SDS011;32131;53.454;-6.180;2023-07-31T00:27:33;3.38;;;0.93;;
46429;SDS011;32131;53.454;-6.180;2023-07-31T00:30:01;2.78;;;0.77;;
46429;SDS011;32131;53.454;-6.180;2023-07-31T00:32:29;1.85;;;0.80;;
46429;SDS011;32131;53.454;-6.180;2023-07-31T00:34:57;3.15;;;0.95;;
46429;SDS011;32131;53.454;-6.180;2023-07-31T00:37:27;2.08;;;0.75;;
46429;SDS011;32131;53.454;-6.180;2023-07-31T00:39:55;3.78;;;0.52;;
46429;SDS011;32131;53.454;-6.180;2023-07-31T00:42:24;2.13;;;0.68;;
46429;SDS011;32131;53.454;-6.180;2023-07-31T00:44:52;4.07;;;0.88;;
46429;SDS011;32131;53.454;-6.180;2023-07-31T00:47:20;3.45;;;0.70;;
46429;SDS011;32131;53.454;-6.180;2023-07-31T00:49:50;4.30;;;0.73;;
46429;SDS011;32131;53.454;-6.180;2023-07-31T00:52:19;1.77;;;0.55;;
46429;SDS011;32131;53.454;-6.180;2023-07-31T00:54:49;1.65;;;0.73;;
46429;SDS011;32131;53.454;-6.180;2023-07-31T00:57:18;2.33;;;0.88;;
46429;SDS011;32131;53.454;-6.180;2023-07-31T00:59:46;2.40;;;0.80;;
46429;SDS011;32131;53.454;-6.180;2023-07-31T01:02:15;4.72;;;1.30;;
46429;SDS011;32131;53.454;-6.180;2023-07-31T01:04:43;5.30;;;0.98;;
46429;SDS011;32131;53.454;-6.180;2023-07-31T01:07:14;1.83;;;1.00;;
46429;SDS011;32131;53.454;-6.180;2023-07-31T01:09:52;2.75;;;0.98;;
46429;SDS011;32131;53.454;-6.180;2023-07-31T01:12:28;2.05;;;0.82;;
46429;SDS011;32131;53.454;-6.180;2023-07-31T01:15:07;1.98;;;0.80;;
46429;SDS011;32131;53.454;-6.180;2023-07-31T01:17:37;4.53;;;0.98;;
46429;SDS011;32131;53.454;-6.180;2023-07-31T01:20:08;2.45;;;0.95;;
46429;SDS011;32131;53.454;-6.180;2023-07-31T01:22:41;5.70;;;1.30;;
46429;SDS011;32131;53.454;-6.180;2023-07-31T01:25:35;3.22;;;1.10;;
46429;SDS011;32131;53.454;-6.180;2023-07-31T01:28:17;4.18;;;0.88;;
46429;SDS011;32131;53.454;-6.180;2023-07-31T01:30:50;4.00;;;0.75;;
46429;SDS011;32131;53.454;-6.180;2023-07-31T01:33:22;2.38;;;1.10;;
46429;SDS011;32131;53.454;-6.180;2023-07-31T01:35:50;1.75;;;0.70;;
46429;SDS011;32131;53.454;-6.180;2023-07-31T01:38:20;4.23;;;0.87;;
46429;SDS011;32131;53.454;-6.180;2023-07-31T01:40:52;1.70;;;0.80;;
46429;SDS011;32131;53.454;-6.180;2023-07-31T01:43:20;1.90;;;0.60;;
46429;SDS011;32131;53.454;-6.180;2023-07-31T01:45:49;5.65;;;0.60;;
46429;SDS011;32131;53.454;-6.180;2023-07-31T01:48:17;2.30;;;0.60;;
46429;SDS011;32131;53.454;-6.180;2023-07-31T01:50:46;1.05;;;0.50;;
46429;SDS011;32131;53.454;-6.180;2023-07-31T01:53:14;2.75;;;0.82;;
46429;SDS011;32131;53.454;-6.180;2023-07-31T01:55:42;2.83;;;0.85;;
46429;SDS011;32131;53.454;-6.180;2023-07-31T01:58:12;2.10;;;0.63;;
46429;SDS011;32131;53.454;-6.180;2023-07-31T02:00:40;1.20;;;0.47;;
46429;SDS011;32131;53.454;-6.180;2023-07-31T02:03:08;0.80;;;0.40;;
46429;SDS011;32131;53.454;-6.180;2023-07-31T02:05:43;4.32;;;0.82;;
46429;SDS011;32131;53.454;-6.180;2023-07-31T02:08:12;1.00;;;0.50;;
46429;SDS011;32131;53.454;-6.180;2023-07-31T02:10:40;2.22;;;0.73;;
46429;SDS011;32131;53.454;-6.180;2023-07-31T02:13:08;1.88;;;0.60;;
46429;SDS011;32131;53.454;-6.180;2023-07-31T02:15:38;2.80;;;0.60;;
46429;SDS011;32131;53.454;-6.180;2023-07-31T02:18:06;1.52;;;0.60;;
46429;SDS011;32131;53.454;-6.180;2023-07-31T02:20:35;1.70;;;0.70;;
46429;SDS011;32131;53.454;-6.180;2023-07-31T02:23:03;1.77;;;0.70;;
46429;SDS011;32131;53.454;-6.180;2023-07-31T02:25:31;2.65;;;0.63;;
46429;SDS011;32131;53.454;-6.180;2023-07-31T02:27:59;2.10;;;0.40;;
46429;SDS011;32131;53.454;-6.180;2023-07-31T02:30:27;1.90;;;0.40;;
46429;SDS011;32131;53.454;-6.180;2023-07-31T02:32:57;1.13;;;0.52;;
46429;SDS011;32131;53.454;-6.180;2023-07-31T02:35:24;1.77;;;0.60;;
46429;SDS011;32131;53.454;-6.180;2023-07-31T02:37:52;1.35;;;0.45;;
46429;SDS011;32131;53.454;-6.180;2023-07-31T02:40:21;1.13;;;0.60;;
46429;SDS011;32131;53.454;-6.180;2023-07-31T02:42:49;1.52;;;0.60;;
46429;SDS011;32131;53.454;-6.180;2023-07-31T02:45:18;1.20;;;0.63;;
46429;SDS011;32131;53.454;-6.180;2023-07-31T02:47:46;1.38;;;0.50;;
46429;SDS011;32131;53.454;-6.180;2023-07-31T02:50:16;2.83;;;0.40;;
46429;SDS011;32131;53.454;-6.180;2023-07-31T02:52:44;1.45;;;0.55;;
46429;SDS011;32131;53.454;-6.180;2023-07-31T02:55:12;1.02;;;0.40;;
46429;SDS011;32131;53.454;-6.180;2023-07-31T02:57:40;2.28;;;0.57;;
46429;SDS011;32131;53.454;-6.180;2023-07-31T03:00:09;3.42;;;0.70;;
46429;SDS011;32131;53.454;-6.180;2023-07-31T03:02:38;1.25;;;0.50;;
46429;SDS011;32131;53.454;-6.180;2023-07-31T03:05:06;0.82;;;0.47;;
46429;SDS011;32131;53.454;-6.180;2023-07-31T03:07:36;2.17;;;0.45;;
46429;SDS011;32131;53.454;-6.180;2023-07-31T03:10:05;1.90;;;0.40;;
46429;SDS011;32131;53.454;-6.180;2023-07-31T03:12:34;1.63;;;0.50;;
46429;SDS011;32131;53.454;-6.180;2023-07-31T03:15:02;3.60;;;0.88;;
46429;SDS011;32131;53.454;-6.180;2023-07-31T03:17:31;6.13;;;0.50;;
46429;SDS011;32131;53.454;-6.180;2023-07-31T03:20:00;0.88;;;0.38;;
46429;SDS011;32131;53.454;-6.180;2023-07-31T03:22:30;1.95;;;0.40;;
46429;SDS011;32131;53.454;-6.180;2023-07-31T03:25:00;5.75;;;0.70;;
46429;SDS011;32131;53.454;-6.180;2023-07-31T03:27:28;1.30;;;0.43;;
46429;SDS011;32131;53.454;-6.180;2023-07-31T03:29:56;1.02;;;0.40;;
46429;SDS011;32131;53.454;-6.180;2023-07-31T03:32:24;1.00;;;0.30;;
46429;SDS011;32131;53.454;-6.180;2023-07-31T03:34:52;0.75;;;0.40;;
46429;SDS011;32131;53.454;-6.180;2023-07-31T03:37:20;1.33;;;0.40;;
46429;SDS011;32131;53.454;-6.180;2023-07-31T03:39:48;1.38;;;0.30;;
46429;SDS011;32131;53.454;-6.180;2023-07-31T03:42:18;0.50;;;0.30;;
46429;SDS011;32131;53.454;-6.180;2023-07-31T03:44:46;0.57;;;0.28;;
46429;SDS011;32131;53.454;-6.180;2023-07-31T03:47:15;3.05;;;0.60;;
46429;SDS011;32131;53.454;-6.180;2023-07-31T03:49:44;1.05;;;0.22;;
46429;SDS011;32131;53.454;-6.180;2023-07-31T03:52:12;4.88;;;0.40;;
46429;SDS011;32131;53.454;-6.180;2023-07-31T03:54:40;1.77;;;0.30;;
46429;SDS011;32131;53.454;-6.180;2023-07-31T03:57:08;0.57;;;0.40;;
46429;SDS011;32131;53.454;-6.180;2023-07-31T03:59:36;2.03;;;0.30;;
46429;SDS011;32131;53.454;-6.180;2023-07-31T04:02:05;1.15;;;0.40;;
46429;SDS011;32131;53.454;-6.180;2023-07-31T04:04:34;1.73;;;0.32;;
46429;SDS011;32131;53.454;-6.180;2023-07-31T04:07:02;2.67;;;0.50;;
46429;SDS011;32131;53.454;-6.180;2023-07-31T04:09:30;1.20;;;0.30;;
46429;SDS011;32131;53.454;-6.180;2023-07-31T04:11:59;0.88;;;0.40;;
46429;SDS011;32131;53.454;-6.180;2023-07-31T04:14:27;0.73;;;0.28;;
46429;SDS011;32131;53.454;-6.180;2023-07-31T04:16:56;0.68;;;0.40;;
46429;SDS011;32131;53.454;-6.180;2023-07-31T04:19:24;0.65;;;0.35;;
46429;SDS011;32131;53.454;-6.180;2023-07-31T04:21:54;0.47;;;0.20;;
46429;SDS011;32131;53.454;-6.180;2023-07-31T04:24:22;1.27;;;0.40;;
46429;SDS011;32131;53.454;-6.180;2023-07-31T04:26:51;0.85;;;0.45;;
46429;SDS011;32131;53.454;-6.180;2023-07-31T04:29:20;0.93;;;0.30;;
46429;SDS011;32131;53.454;-6.180;2023-07-31T04:31:49;0.68;;;0.32;;
46429;SDS011;32131;53.454;-6.180;2023-07-31T04:34:18;2.20;;;0.40;;
46429;SDS011;32131;53.454;-6.180;2023-07-31T04:36:49;1.55;;;0.45;;
46429;SDS011;32131;53.454;-6.180;2023-07-31T04:39:17;1.15;;;0.40;;
46429;SDS011;32131;53.454;-6.180;2023-07-31T04:41:45;2.60;;;0.25;;
46429;SDS011;32131;53.454;-6.180;2023-07-31T04:44:13;1.27;;;0.40;;
46429;SDS011;32131;53.454;-6.180;2023-07-31T04:46:41;0.75;;;0.30;;
46429;SDS011;32131;53.454;-6.180;2023-07-31T04:49:10;1.02;;;0.20;;
46429;SDS011;32131;53.454;-6.180;2023-07-31T04:51:40;0.85;;;0.38;;
46429;SDS011;32131;53.454;-6.180;2023-07-31T04:54:09;0.70;;;0.35;;
46429;SDS011;32131;53.454;-6.180;2023-07-31T04:56:39;1.65;;;0.40;;
46429;SDS011;32131;53.454;-6.180;2023-07-31T04:59:07;0.95;;;0.30;;
46429;SDS011;32131;53.454;-6.180;2023-07-31T05:01:35;0.93;;;0.22;;
46429;SDS011;32131;53.454;-6.180;2023-07-31T05:04:03;0.60;;;0.30;;
46429;SDS011;32131;53.454;-6.180;2023-07-31T05:06:32;0.93;;;0.32;;
46429;SDS011;32131;53.454;-6.180;2023-07-31T05:09:01;1.95;;;0.20;;
46429;SDS011;32131;53.454;-6.180;2023-07-31T05:11:30;0.35;;;0.20;;
46429;SDS011;32131;53.454;-6.180;2023-07-31T05:13:58;2.90;;;0.32;;
46429;SDS011;32131;53.454;-6.180;2023-07-31T05:16:29;1.27;;;0.35;;
46429;SDS011;32131;53.454;-6.180;2023-07-31T05:18:57;1.08;;;0.40;;
46429;SDS011;32131;53.454;-6.180;2023-07-31T05:21:25;1.73;;;0.50;;
46429;SDS011;32131;53.454;-6.180;2023-07-31T05:23:54;1.55;;;0.40;;
46429;SDS011;32131;53.454;-6.180;2023-07-31T05:26:23;1.98;;;0.40;;
46429;SDS011;32131;53.454;-6.180;2023-07-31T05:28:51;1.48;;;0.30;;
46429;SDS011;32131;53.454;-6.180;2023-07-31T05:31:20;0.40;;;0.30;;
46429;SDS011;32131;53.454;-6.180;2023-07-31T05:33:49;0.95;;;0.30;;
46429;SDS011;32131;53.454;-6.180;2023-07-31T05:36:17;1.10;;;0.30;;
46429;SDS011;32131;53.454;-6.180;2023-07-31T05:38:45;3.50;;;0.30;;
46429;SDS011;32131;53.454;-6.180;2023-07-31T05:41:14;1.20;;;0.30;;
46429;SDS011;32131;53.454;-6.180;2023-07-31T05:43:44;1.13;;;0.40;;
46429;SDS011;32131;53.454;-6.180;2023-07-31T05:46:13;3.13;;;0.45;;
46429;SDS011;32131;53.454;-6.180;2023-07-31T05:48:42;2.47;;;0.47;;
46429;SDS011;32131;53.454;-6.180;2023-07-31T05:51:11;0.55;;;0.30;;
46429;SDS011;32131;53.454;-6.180;2023-07-31T05:53:39;2.88;;;0.60;;
46429;SDS011;32131;53.454;-6.180;2023-07-31T05:56:08;2.58;;;0.50;;
46429;SDS011;32131;53.454;-6.180;2023-07-31T05:58:36;3.38;;;0.55;;
46429;SDS011;32131;53.454;-6.180;2023-07-31T06:01:06;1.67;;;0.43;;
46429;SDS011;32131;53.454;-6.180;2023-07-31T06:03:34;1.17;;;0.30;;
46429;SDS011;32131;53.454;-6.180;2023-07-31T06:06:02;2.33;;;0.73;;
46429;SDS011;32131;53.454;-6.180;2023-07-31T06:08:30;2.17;;;0.47;;
46429;SDS011;32131;53.454;-6.180;2023-07-31T06:10:59;2.70;;;0.70;;
46429;SDS011;32131;53.454;-6.180;2023-07-31T06:13:27;0.90;;;0.32;;
46429;SDS011;32131;53.454;-6.180;2023-07-31T06:15:55;4.28;;;0.63;;
46429;SDS011;32131;53.454;-6.180;2023-07-31T06:18:25;4.68;;;0.60;;
46429;SDS011;32131;53.454;-6.180;2023-07-31T06:20:53;1.92;;;0.40;;
46429;SDS011;32131;53.454;-6.180;2023-07-31T06:23:22;1.25;;;0.50;;
46429;SDS011;32131;53.454;-6.180;2023-07-31T06:25:50;1.55;;;0.40;;
46429;SDS011;32131;53.454;-6.180;2023-07-31T06:28:21;1.23;;;0.50;;
46429;SDS011;32131;53.454;-6.180;2023-07-31T06:30:49;2.58;;;0.68;;
46429;SDS011;32131;53.454;-6.180;2023-07-31T06:33:18;4.43;;;0.50;;
46429;SDS011;32131;53.454;-6.180;2023-07-31T06:35:47;2.20;;;0.75;;
46429;SDS011;32131;53.454;-6.180;2023-07-31T06:38:18;1.63;;;0.60;;
46429;SDS011;32131;53.454;-6.180;2023-07-31T06:40:56;3.78;;;0.85;;
46429;SDS011;32131;53.454;-6.180;2023-07-31T06:43:24;3.08;;;0.55;;
46429;SDS011;32131;53.454;-6.180;2023-07-31T06:45:56;1.23;;;0.60;;
46429;SDS011;32131;53.454;-6.180;2023-07-31T06:48:27;2.03;;;0.60;;
46429;SDS011;32131;53.454;-6.180;2023-07-31T06:50:57;1.98;;;0.88;;
46429;SDS011;32131;53.454;-6.180;2023-07-31T06:53:25;2.58;;;0.90;;
46429;SDS011;32131;53.454;-6.180;2023-07-31T06:55:53;2.15;;;0.60;;
46429;SDS011;32131;53.454;-6.180;2023-07-31T06:58:21;7.05;;;1.15;;
46429;SDS011;32131;53.454;-6.180;2023-07-31T07:00:52;3.70;;;1.00;;
46429;SDS011;32131;53.454;-6.180;2023-07-31T07:03:20;5.57;;;1.27;;
46429;SDS011;32131;53.454;-6.180;2023-07-31T07:05:48;4.45;;;1.30;;
46429;SDS011;32131;53.454;-6.180;2023-07-31T07:08:18;1.98;;;0.80;;
46429;SDS011;32131;53.454;-6.180;2023-07-31T07:10:46;13.13;;;1.50;;
46429;SDS011;32131;53.454;-6.180;2023-07-31T07:13:15;7.05;;;1.40;;
46429;SDS011;32131;53.454;-6.180;2023-07-31T07:15:47;12.07;;;1.60;;
46429;SDS011;32131;53.454;-6.180;2023-07-31T07:18:19;6.80;;;1.35;;
46429;SDS011;32131;53.454;-6.180;2023-07-31T07:20:51;4.75;;;1.45;;
46429;SDS011;32131;53.454;-6.180;2023-07-31T07:23:22;4.97;;;1.17;;
46429;SDS011;32131;53.454;-6.180;2023-07-31T07:25:54;4.00;;;1.58;;
46429;SDS011;32131;53.454;-6.180;2023-07-31T07:31:16;2.35;;;0.95;;
46429;SDS011;32131;53.454;-6.180;2023-07-31T07:34:02;4.25;;;1.10;;
46429;SDS011;32131;53.454;-6.180;2023-07-31T07:40:05;7.13;;;1.30;;
46429;SDS011;32131;53.454;-6.180;2023-07-31T07:43:43;5.35;;;1.38;;
46429;SDS011;32131;53.454;-6.180;2023-07-31T07:46:51;3.42;;;0.88;;
46429;SDS011;32131;53.454;-6.180;2023-07-31T07:49:35;2.58;;;1.17;;
46429;SDS011;32131;53.454;-6.180;2023-07-31T07:52:16;9.83;;;1.50;;
46429;SDS011;32131;53.454;-6.180;2023-07-31T07:55:28;5.30;;;1.52;;
46429;SDS011;32131;53.454;-6.180;2023-07-31T07:58:50;4.60;;;1.10;;
46429;SDS011;32131;53.454;-6.180;2023-07-31T08:01:47;6.07;;;1.58;;
46429;SDS011;32131;53.454;-6.180;2023-07-31T08:04:16;6.97;;;1.33;;
46429;SDS011;32131;53.454;-6.180;2023-07-31T08:06:44;3.50;;;1.15;;
46429;SDS011;32131;53.454;-6.180;2023-07-31T08:09:12;3.38;;;1.30;;
46429;SDS011;32131;53.454;-6.180;2023-07-31T08:11:42;6.28;;;1.02;;
46429;SDS011;32131;53.454;-6.180;2023-07-31T08:14:13;3.95;;;0.82;;
46429;SDS011;32131;53.454;-6.180;2023-07-31T08:16:42;4.80;;;1.05;;
46429;SDS011;32131;53.454;-6.180;2023-07-31T08:19:10;4.85;;;0.90;;
46429;SDS011;32131;53.454;-6.180;2023-07-31T08:21:39;3.05;;;1.10;;
46429;SDS011;32131;53.454;-6.180;2023-07-31T08:24:07;2.20;;;0.98;;
46429;SDS011;32131;53.454;-6.180;2023-07-31T08:26:35;5.22;;;1.05;;
46429;SDS011;32131;53.454;-6.180;2023-07-31T08:29:05;3.67;;;1.02;;
46429;SDS011;32131;53.454;-6.180;2023-07-31T08:31:34;1.75;;;0.60;;
46429;SDS011;32131;53.454;-6.180;2023-07-31T08:34:03;4.95;;;0.65;;
46429;SDS011;32131;53.454;-6.180;2023-07-31T08:36:31;7.82;;;1.13;;
46429;SDS011;32131;53.454;-6.180;2023-07-31T08:39:02;3.55;;;0.73;;
46429;SDS011;32131;53.454;-6.180;2023-07-31T08:41:30;4.78;;;0.95;;
46429;SDS011;32131;53.454;-6.180;2023-07-31T08:43:59;5.45;;;0.93;;
46429;SDS011;32131;53.454;-6.180;2023-07-31T08:46:30;1.27;;;0.50;;
46429;SDS011;32131;53.454;-6.180;2023-07-31T08:48:57;4.00;;;0.95;;
46429;SDS011;32131;53.454;-6.180;2023-07-31T08:51:27;5.10;;;1.15;;
46429;SDS011;32131;53.454;-6.180;2023-07-31T08:53:56;5.63;;;1.27;;
46429;SDS011;32131;53.454;-6.180;2023-07-31T08:56:25;6.47;;;1.67;;
46429;SDS011;32131;53.454;-6.180;2023-07-31T08:58:54;7.55;;;1.50;;
46429;SDS011;32131;53.454;-6.180;2023-07-31T09:01:26;8.00;;;1.25;;
46429;SDS011;32131;53.454;-6.180;2023-07-31T09:04:03;6.57;;;1.27;;
46429;SDS011;32131;53.454;-6.180;2023-07-31T09:06:48;3.67;;;1.08;;
46429;SDS011;32131;53.454;-6.180;2023-07-31T09:09:33;8.13;;;1.42;;
46429;SDS011;32131;53.454;-6.180;2023-07-31T09:14:34;6.65;;;1.30;;
46429;SDS011;32131;53.454;-6.180;2023-07-31T09:17:07;3.72;;;1.25;;
46429;SDS011;32131;53.454;-6.180;2023-07-31T09:19:35;9.07;;;1.73;;
46429;SDS011;32131;53.454;-6.180;2023-07-31T09:22:04;9.10;;;1.98;;
46429;SDS011;32131;53.454;-6.180;2023-07-31T09:24:33;6.97;;;1.63;;
46429;SDS011;32131;53.454;-6.180;2023-07-31T09:27:02;11.30;;;1.85;;
46429;SDS011;32131;53.454;-6.180;2023-07-31T09:29:33;5.22;;;1.38;;
46429;SDS011;32131;53.454;-6.180;2023-07-31T09:32:02;5.75;;;2.08;;
46429;SDS011;32131;53.454;-6.180;2023-07-31T09:34:37;8.77;;;1.63;;
46429;SDS011;32131;53.454;-6.180;2023-07-31T09:37:10;6.15;;;1.40;;
46429;SDS011;32131;53.454;-6.180;2023-07-31T09:39:47;5.93;;;1.55;;
46429;SDS011;32131;53.454;-6.180;2023-07-31T09:42:24;12.32;;;1.73;;
46429;SDS011;32131;53.454;-6.180;2023-07-31T09:45:06;13.23;;;2.17;;
46429;SDS011;32131;53.454;-6.180;2023-07-31T09:47:37;7.32;;;1.27;;
46429;SDS011;32131;53.454;-6.180;2023-07-31T09:50:10;6.20;;;1.58;;
46429;SDS011;32131;53.454;-6.180;2023-07-31T09:52:39;7.03;;;1.63;;
46429;SDS011;32131;53.454;-6.180;2023-07-31T09:55:08;8.02;;;1.58;;
46429;SDS011;32131;53.454;-6.180;2023-07-31T09:57:36;6.53;;;1.52;;
46429;SDS011;32131;53.454;-6.180;2023-07-31T10:00:09;7.63;;;1.77;;
46429;SDS011;32131;53.454;-6.180;2023-07-31T10:02:38;8.23;;;1.65;;
46429;SDS011;32131;53.454;-6.180;2023-07-31T10:05:10;12.15;;;2.00;;
46429;SDS011;32131;53.454;-6.180;2023-07-31T10:07:48;10.20;;;1.88;;
46429;SDS011;32131;53.454;-6.180;2023-07-31T10:10:21;10.52;;;1.95;;
46429;SDS011;32131;53.454;-6.180;2023-07-31T10:12:50;13.55;;;2.00;;
46429;SDS011;32131;53.454;-6.180;2023-07-31T10:15:21;13.02;;;2.38;;
46429;SDS011;32131;53.454;-6.180;2023-07-31T10:17:55;7.65;;;2.05;;
46429;SDS011;32131;53.454;-6.180;2023-07-31T10:23:45;7.80;;;1.80;;
46429;SDS011;32131;53.454;-6.180;2023-07-31T10:26:16;5.07;;;1.63;;
46429;SDS011;32131;53.454;-6.180;2023-07-31T10:28:47;7.28;;;1.52;;
46429;SDS011;32131;53.454;-6.180;2023-07-31T10:31:18;5.60;;;1.58;;
46429;SDS011;32131;53.454;-6.180;2023-07-31T10:33:49;7.20;;;1.63;;
46429;SDS011;32131;53.454;-6.180;2023-07-31T10:36:20;14.18;;;1.65;;
46429;SDS011;32131;53.454;-6.180;2023-07-31T10:38:48;11.98;;;1.83;;
46429;SDS011;32131;53.454;-6.180;2023-07-31T10:41:18;7.97;;;1.85;;
46429;SDS011;32131;53.454;-6.180;2023-07-31T10:43:47;11.90;;;1.83;;
46429;SDS011;32131;53.454;-6.180;2023-07-31T10:46:17;12.60;;;1.85;;
46429;SDS011;32131;53.454;-6.180;2023-07-31T10:48:57;14.68;;;2.20;;
46429;SDS011;32131;53.454;-6.180;2023-07-31T10:51:33;9.75;;;1.85;;
46429;SDS011;32131;53.454;-6.180;2023-07-31T10:54:13;6.10;;;1.40;;
46429;SDS011;32131;53.454;-6.180;2023-07-31T10:56:45;5.25;;;1.55;;
46429;SDS011;32131;53.454;-6.180;2023-07-31T10:59:14;5.93;;;1.87;;
46429;SDS011;32131;53.454;-6.180;2023-07-31T11:01:51;10.40;;;1.90;;
46429;SDS011;32131;53.454;-6.180;2023-07-31T11:04:25;7.28;;;1.98;;
46429;SDS011;32131;53.454;-6.180;2023-07-31T11:07:00;7.18;;;1.73;;
46429;SDS011;32131;53.454;-6.180;2023-07-31T11:09:37;7.05;;;2.03;;
46429;SDS011;32131;53.454;-6.180;2023-07-31T11:12:07;5.28;;;2.08;;
46429;SDS011;32131;53.454;-6.180;2023-07-31T11:14:38;7.28;;;1.70;;
46429;SDS011;32131;53.454;-6.180;2023-07-31T11:17:09;10.40;;;2.78;;
46429;SDS011;32131;53.454;-6.180;2023-07-31T11:19:37;6.80;;;1.55;;
46429;SDS011;32131;53.454;-6.180;2023-07-31T11:22:08;9.15;;;1.90;;
46429;SDS011;32131;53.454;-6.180;2023-07-31T11:24:36;7.53;;;1.80;;
46429;SDS011;32131;53.454;-6.180;2023-07-31T11:27:10;7.40;;;1.90;;
46429;SDS011;32131;53.454;-6.180;2023-07-31T11:29:38;9.05;;;2.05;;
46429;SDS011;32131;53.454;-6.180;2023-07-31T11:32:08;4.50;;;1.55;;
46429;SDS011;32131;53.454;-6.180;2023-07-31T11:34:50;7.43;;;1.70;;
46429;SDS011;32131;53.454;-6.180;2023-07-31T11:37:22;9.60;;;2.10;;
46429;SDS011;32131;53.454;-6.180;2023-07-31T11:40:00;10.52;;;1.92;;
46429;SDS011;32131;53.454;-6.180;2023-07-31T11:42:28;7.50;;;1.58;;
46429;SDS011;32131;53.454;-6.180;2023-07-31T11:44:57;5.25;;;1.67;;
46429;SDS011;32131;53.454;-6.180;2023-07-31T11:47:25;7.15;;;1.85;;
46429;SDS011;32131;53.454;-6.180;2023-07-31T11:49:54;4.18;;;1.10;;
46429;SDS011;32131;53.454;-6.180;2023-07-31T11:52:25;9.13;;;1.75;;
46429;SDS011;32131;53.454;-6.180;2023-07-31T11:54:54;5.15;;;1.48;;
46429;SDS011;32131;53.454;-6.180;2023-07-31T11:57:26;4.93;;;1.00;;
46429;SDS011;32131;53.454;-6.180;2023-07-31T12:00:00;4.80;;;1.55;;
46429;SDS011;32131;53.454;-6.180;2023-07-31T12:02:29;5.13;;;1.42;;
46429;SDS011;32131;53.454;-6.180;2023-07-31T12:04:58;3.90;;;1.05;;
46429;SDS011;32131;53.454;-6.180;2023-07-31T12:07:28;2.53;;;0.90;;
46429;SDS011;32131;53.454;-6.180;2023-07-31T12:10:11;7.00;;;1.20;;
46429;SDS011;32131;53.454;-6.180;2023-07-31T12:15:35;5.28;;;1.20;;
46429;SDS011;32131;53.454;-6.180;2023-07-31T12:18:08;4.82;;;1.45;;
46429;SDS011;32131;53.454;-6.180;2023-07-31T12:20:41;6.75;;;1.00;;
46429;SDS011;32131;53.454;-6.180;2023-07-31T12:23:18;2.05;;;0.70;;
46429;SDS011;32131;53.454;-6.180;2023-07-31T12:26:00;2.17;;;0.70;;
46429;SDS011;32131;53.454;-6.180;2023-07-31T12:28:29;2.63;;;0.65;;
46429;SDS011;32131;53.454;-6.180;2023-07-31T12:30:59;3.25;;;1.13;;
46429;SDS011;32131;53.454;-6.180;2023-07-31T12:33:30;3.88;;;0.77;;
46429;SDS011;32131;53.454;-6.180;2023-07-31T12:36:09;2.97;;;0.90;;
46429;SDS011;32131;53.454;-6.180;2023-07-31T12:38:41;2.72;;;0.75;;
46429;SDS011;32131;53.454;-6.180;2023-07-31T12:41:17;1.85;;;0.63;;
46429;SDS011;32131;53.454;-6.180;2023-07-31T12:43:46;2.00;;;0.60;;
46429;SDS011;32131;53.454;-6.180;2023-07-31T12:46:15;3.28;;;0.77;;
46429;SDS011;32131;53.454;-6.180;2023-07-31T12:48:45;4.63;;;0.85;;
46429;SDS011;32131;53.454;-6.180;2023-07-31T12:51:13;4.05;;;1.33;;
46429;SDS011;32131;53.454;-6.180;2023-07-31T12:53:43;2.75;;;0.98;;
46429;SDS011;32131;53.454;-6.180;2023-07-31T12:56:17;6.40;;;1.10;;
46429;SDS011;32131;53.454;-6.180;2023-07-31T12:58:46;3.25;;;0.90;;
46429;SDS011;32131;53.454;-6.180;2023-07-31T13:01:17;3.35;;;0.93;;
46429;SDS011;32131;53.454;-6.180;2023-07-31T13:03:46;3.80;;;0.90;;
46429;SDS011;32131;53.454;-6.180;2023-07-31T13:06:14;5.18;;;1.10;;
46429;SDS011;32131;53.454;-6.180;2023-07-31T13:08:44;10.75;;;0.93;;
46429;SDS011;32131;53.454;-6.180;2023-07-31T13:13:42;3.55;;;1.17;;
46429;SDS011;32131;53.454;-6.180;2023-07-31T13:16:10;4.43;;;1.40;;
46429;SDS011;32131;53.454;-6.180;2023-07-31T13:18:40;2.10;;;0.73;;
46429;SDS011;32131;53.454;-6.180;2023-07-31T13:21:08;6.28;;;0.93;;
46429;SDS011;32131;53.454;-6.180;2023-07-31T13:23:37;3.65;;;1.13;;
46429;SDS011;32131;53.454;-6.180;2023-07-31T13:26:10;5.25;;;1.15;;
46429;SDS011;32131;53.454;-6.180;2023-07-31T13:28:39;2.95;;;1.20;;
46429;SDS011;32131;53.454;-6.180;2023-07-31T13:31:10;6.07;;;1.27;;
46429;SDS011;32131;53.454;-6.180;2023-07-31T13:33:46;3.58;;;1.13;;
46429;SDS011;32131;53.454;-6.180;2023-07-31T13:36:14;2.70;;;1.30;;
46429;SDS011;32131;53.454;-6.180;2023-07-31T13:38:42;5.35;;;1.08;;
46429;SDS011;32131;53.454;-6.180;2023-07-31T13:41:13;8.02;;;1.10;;
46429;SDS011;32131;53.454;-6.180;2023-07-31T13:43:41;5.18;;;1.27;;
46429;SDS011;32131;53.454;-6.180;2023-07-31T13:46:10;3.90;;;1.08;;
46429;SDS011;32131;53.454;-6.180;2023-07-31T13:48:39;4.00;;;1.35;;
46429;SDS011;32131;53.454;-6.180;2023-07-31T13:51:09;6.50;;;1.50;;
46429;SDS011;32131;53.454;-6.180;2023-07-31T13:53:40;3.42;;;1.05;;
46429;SDS011;32131;53.454;-6.180;2023-07-31T13:56:10;4.47;;;1.70;;
46429;SDS011;32131;53.454;-6.180;2023-07-31T13:58:43;4.35;;;1.10;;
46429;SDS011;32131;53.454;-6.180;2023-07-31T14:01:14;6.57;;;1.52;;
46429;SDS011;32131;53.454;-6.180;2023-07-31T14:03:43;5.40;;;1.52;;
46429;SDS011;32131;53.454;-6.180;2023-07-31T14:06:12;7.03;;;1.45;;
46429;SDS011;32131;53.454;-6.180;2023-07-31T14:08:41;4.38;;;1.30;;
46429;SDS011;32131;53.454;-6.180;2023-07-31T14:11:14;5.75;;;1.08;;
46429;SDS011;32131;53.454;-6.180;2023-07-31T14:13:42;2.25;;;0.80;;
46429;SDS011;32131;53.454;-6.180;2023-07-31T14:16:11;2.30;;;0.80;;
46429;SDS011;32131;53.454;-6.180;2023-07-31T14:18:46;2.10;;;0.95;;
46429;SDS011;32131;53.454;-6.180;2023-07-31T14:21:22;7.85;;;0.85;;
46429;SDS011;32131;53.454;-6.180;2023-07-31T14:23:51;2.42;;;0.75;;
46429;SDS011;32131;53.454;-6.180;2023-07-31T14:26:21;2.80;;;0.93;;
46429;SDS011;32131;53.454;-6.180;2023-07-31T14:28:49;1.77;;;0.80;;
46429;SDS011;32131;53.454;-6.180;2023-07-31T14:31:19;3.63;;;1.00;;
46429;SDS011;32131;53.454;-6.180;2023-07-31T14:33:50;5.15;;;1.15;;
46429;SDS011;32131;53.454;-6.180;2023-07-31T14:36:23;4.60;;;1.08;;
46429;SDS011;32131;53.454;-6.180;2023-07-31T14:38:54;2.78;;;0.70;;
46429;SDS011;32131;53.454;-6.180;2023-07-31T14:41:24;3.17;;;0.90;;
46429;SDS011;32131;53.454;-6.180;2023-07-31T14:43:56;3.80;;;0.95;;
46429;SDS011;32131;53.454;-6.180;2023-07-31T14:46:27;2.22;;;0.80;;
46429;SDS011;32131;53.454;-6.180;2023-07-31T14:48:55;3.15;;;0.70;;
46429;SDS011;32131;53.454;-6.180;2023-07-31T14:51:24;3.63;;;1.02;;
46429;SDS011;32131;53.454;-6.180;2023-07-31T14:53:53;5.18;;;1.00;;
46429;SDS011;32131;53.454;-6.180;2023-07-31T14:56:22;2.47;;;0.47;;
46429;SDS011;32131;53.454;-6.180;2023-07-31T14:58:53;3.58;;;0.93;;
46429;SDS011;32131;53.454;-6.180;2023-07-31T15:01:22;3.75;;;0.70;;
46429;SDS011;32131;53.454;-6.180;2023-07-31T15:06:23;3.63;;;0.93;;
46429;SDS011;32131;53.454;-6.180;2023-07-31T15:08:59;4.53;;;0.40;;
46429;SDS011;32131;53.454;-6.180;2023-07-31T15:11:28;1.10;;;0.45;;
46429;SDS011;32131;53.454;-6.180;2023-07-31T15:14:02;3.72;;;0.50;;